Time;durP1;ratioP1;P1;durP2;ratioP2;P2;SDS_P1;SDS_P2;PMS_P1;PMS_P2;Temp;Humidity;BMP_temperature;BMP_pressure;BME280_temperature;BME280_humidity;BME280_pressure;Samples;Min_cycle;Max_cycle;Signal;HPM_P1;HPM_P2
2021/08/08 00:01:29;;;;;;;2.38;1.20;;;;;;;;;;4968741;28;20690;-76
2021/08/08 00:03:54;;;;;;;2.05;1.40;;;;;;;;;;4985132;28;20204;-77
2021/08/08 00:06:20;;;;;;;1.67;1.00;;;;;;;;;;4987487;28;20216;-75
2021/08/08 00:08:45;;;;;;;2.33;1.20;;;;;;;;;;4989548;28;20188;-76
2021/08/08 00:11:10;;;;;;;2.30;1.10;;;;;;;;;;4987072;28;20827;-76
2021/08/08 00:13:36;;;;;;;1.80;0.98;;;;;;;;;;4989549;28;20176;-77
2021/08/08 00:16:02;;;;;;;2.45;1.15;;;;;;;;;;4987696;28;20310;-77
2021/08/08 00:18:27;;;;;;;1.63;1.00;;;;;;;;;;4985314;28;20180;-76
2021/08/08 00:20:52;;;;;;;1.73;1.17;;;;;;;;;;4988100;28;21147;-76
2021/08/08 00:23:17;;;;;;;1.63;0.93;;;;;;;;;;4989951;28;20172;-76
2021/08/08 00:25:42;;;;;;;2.40;1.20;;;;;;;;;;4985953;28;20699;-76
2021/08/08 00:28:07;;;;;;;1.05;0.90;;;;;;;;;;4990341;28;20187;-76
2021/08/08 00:30:33;;;;;;;1.60;1.00;;;;;;;;;;4986066;28;20208;-78
2021/08/08 00:32:58;;;;;;;1.25;0.95;;;;;;;;;;4987522;28;20190;-76
2021/08/08 00:37:52;;;;;;;2.00;1.10;;;;;;;;;;4966350;28;20225;-76
2021/08/08 00:40:19;;;;;;;2.38;1.02;;;;;;;;;;4970031;28;20268;-76
2021/08/08 00:42:47;;;;;;;2.15;1.08;;;;;;;;;;4955954;28;20180;-76
2021/08/08 00:45:14;;;;;;;2.38;1.17;;;;;;;;;;4968359;28;20704;-76
2021/08/08 00:47:39;;;;;;;0.90;0.80;;;;;;;;;;4967433;28;20200;-75
2021/08/08 00:50:04;;;;;;;1.10;1.00;;;;;;;;;;4966723;28;20585;-77
2021/08/08 00:52:30;;;;;;;0.70;0.70;;;;;;;;;;4967879;28;20180;-76
2021/08/08 00:54:55;;;;;;;2.33;0.90;;;;;;;;;;4967129;28;20183;-75
2021/08/08 00:57:20;;;;;;;3.58;0.90;;;;;;;;;;4968142;28;20275;-75
2021/08/08 00:59:45;;;;;;;1.52;0.70;;;;;;;;;;4973860;28;20181;-76
2021/08/08 01:02:10;;;;;;;1.15;0.85;;;;;;;;;;4966890;28;20196;-75
2021/08/08 01:04:38;;;;;;;0.63;0.60;;;;;;;;;;4977334;28;20543;-76
2021/08/08 01:07:09;;;;;;;0.82;0.80;;;;;;;;;;4968002;28;20227;-76
2021/08/08 01:09:37;;;;;;;1.67;0.70;;;;;;;;;;4967861;28;20227;-75
2021/08/08 01:12:02;;;;;;;1.10;0.75;;;;;;;;;;4951660;28;20199;-75
2021/08/08 01:14:29;;;;;;;0.73;0.70;;;;;;;;;;4969059;28;20558;-76
2021/08/08 01:16:55;;;;;;;0.90;0.70;;;;;;;;;;4965451;28;20676;-76
2021/08/08 01:19:21;;;;;;;1.95;0.80;;;;;;;;;;4969594;28;20220;-76
2021/08/08 01:21:47;;;;;;;1.48;0.70;;;;;;;;;;4968065;28;20193;-76
2021/08/08 01:24:12;;;;;;;0.70;0.70;;;;;;;;;;4968212;28;20280;-75
2021/08/08 01:26:38;;;;;;;0.98;0.70;;;;;;;;;;4969130;28;20288;-76
2021/08/08 01:29:04;;;;;;;1.50;0.70;;;;;;;;;;4965987;28;20192;-76
2021/08/08 01:31:29;;;;;;;0.95;0.65;;;;;;;;;;4967190;28;20204;-75
2021/08/08 01:33:54;;;;;;;0.60;0.60;;;;;;;;;;4966198;28;20181;-76
2021/08/08 01:36:20;;;;;;;0.93;0.70;;;;;;;;;;4968566;28;20216;-74
2021/08/08 01:39:05;;;;;;;0.80;0.80;;;;;;;;;;4968119;28;20184;-76
2021/08/08 01:41:33;;;;;;;1.55;0.60;;;;;;;;;;4966129;28;20224;-74
2021/08/08 01:44:00;;;;;;;0.98;0.57;;;;;;;;;;4968218;28;20268;-76
2021/08/08 01:46:27;;;;;;;0.60;0.60;;;;;;;;;;4966828;28;20201;-76
2021/08/08 01:48:53;;;;;;;1.00;0.70;;;;;;;;;;4967912;28;20343;-75
2021/08/08 01:51:18;;;;;;;0.68;0.60;;;;;;;;;;4969252;28;20216;-75
2021/08/08 01:53:43;;;;;;;1.08;0.90;;;;;;;;;;4969638;28;20179;-75
2021/08/08 01:56:11;;;;;;;1.58;0.70;;;;;;;;;;4968881;28;20208;-75
2021/08/08 01:58:37;;;;;;;0.68;0.60;;;;;;;;;;4972420;28;20181;-73
2021/08/08 02:01:02;;;;;;;2.43;0.70;;;;;;;;;;4966328;28;20240;-76
2021/08/08 02:03:34;;;;;;;2.00;0.73;;;;;;;;;;4968470;28;20181;-75
2021/08/08 02:05:59;;;;;;;0.70;0.70;;;;;;;;;;4967405;28;20205;-74
2021/08/08 02:08:24;;;;;;;1.23;0.70;;;;;;;;;;4967649;28;20736;-76
2021/08/08 02:10:50;;;;;;;2.63;0.70;;;;;;;;;;4968502;28;20283;-77
2021/08/08 02:13:15;;;;;;;0.80;0.60;;;;;;;;;;4951877;28;20204;-76
2021/08/08 02:15:40;;;;;;;1.65;0.80;;;;;;;;;;4971413;28;20200;-77
2021/08/08 02:18:05;;;;;;;1.08;0.65;;;;;;;;;;4971593;28;20677;-76
2021/08/08 02:20:30;;;;;;;1.50;0.80;;;;;;;;;;4971260;28;20189;-76
2021/08/08 02:22:56;;;;;;;0.70;0.70;;;;;;;;;;4972393;28;20188;-76
2021/08/08 02:25:21;;;;;;;1.35;0.80;;;;;;;;;;4972917;28;20231;-76
2021/08/08 02:27:46;;;;;;;3.17;0.93;;;;;;;;;;4973153;28;20287;-76
2021/08/08 02:30:11;;;;;;;1.13;0.60;;;;;;;;;;4971918;28;20291;-75
2021/08/08 02:32:36;;;;;;;0.90;0.70;;;;;;;;;;4972431;28;20212;-75
2021/08/08 02:35:02;;;;;;;1.67;0.60;;;;;;;;;;4972638;28;20530;-74
2021/08/08 02:37:27;;;;;;;1.70;0.82;;;;;;;;;;4972522;28;20216;-76
2021/08/08 02:39:52;;;;;;;1.15;0.70;;;;;;;;;;4970359;28;20176;-76
2021/08/08 02:42:18;;;;;;;1.38;0.80;;;;;;;;;;4971669;28;20649;-76
2021/08/08 02:44:43;;;;;;;0.85;0.65;;;;;;;;;;4971900;28;20263;-75
2021/08/08 02:47:08;;;;;;;2.15;0.90;;;;;;;;;;4968412;28;20204;-76
2021/08/08 02:49:33;;;;;;;1.00;0.70;;;;;;;;;;4970435;28;20200;-77
2021/08/08 02:51:59;;;;;;;1.45;0.88;;;;;;;;;;4976517;28;20214;-76
2021/08/08 02:54:24;;;;;;;6.07;1.00;;;;;;;;;;4971627;28;20188;-75
2021/08/08 02:56:49;;;;;;;4.75;0.75;;;;;;;;;;4970320;28;20208;-74
2021/08/08 02:59:14;;;;;;;0.75;0.60;;;;;;;;;;4969160;28;20590;-76
2021/08/08 03:01:39;;;;;;;0.88;0.70;;;;;;;;;;4968084;28;20184;-76
2021/08/08 03:04:04;;;;;;;4.22;0.70;;;;;;;;;;4972458;28;20188;-76
2021/08/08 03:06:30;;;;;;;1.53;0.60;;;;;;;;;;4971490;28;20739;-78
2021/08/08 03:08:55;;;;;;;0.60;0.60;;;;;;;;;;4971904;28;20185;-76
2021/08/08 03:11:20;;;;;;;2.00;0.80;;;;;;;;;;4956345;28;20204;-77
2021/08/08 03:13:45;;;;;;;0.60;0.60;;;;;;;;;;4971738;28;20743;-76
2021/08/08 03:16:10;;;;;;;1.47;1.33;;;;;;;;;;4969519;28;20735;-77
2021/08/08 03:18:36;;;;;;;1.00;0.60;;;;;;;;;;4970749;28;20212;-77
2021/08/08 03:21:01;;;;;;;0.60;0.57;;;;;;;;;;4971560;28;20192;-76
2021/08/08 03:23:26;;;;;;;1.70;0.80;;;;;;;;;;4971158;28;20612;-76
2021/08/08 03:25:52;;;;;;;1.10;0.90;;;;;;;;;;4954155;28;20215;-75
2021/08/08 03:28:17;;;;;;;2.15;0.80;;;;;;;;;;4972203;28;20193;-76
2021/08/08 03:30:43;;;;;;;0.70;0.60;;;;;;;;;;4972793;28;20568;-76
2021/08/08 03:33:08;;;;;;;2.63;0.73;;;;;;;;;;4970301;28;20181;-76
2021/08/08 03:35:34;;;;;;;0.73;0.70;;;;;;;;;;4971826;28;20173;-76
2021/08/08 03:37:59;;;;;;;1.10;0.60;;;;;;;;;;4971130;28;20191;-75
2021/08/08 03:40:24;;;;;;;2.10;0.93;;;;;;;;;;4970690;28;20188;-77
2021/08/08 03:42:49;;;;;;;2.63;0.70;;;;;;;;;;4971459;28;20276;-76
2021/08/08 03:45:15;;;;;;;1.88;0.80;;;;;;;;;;4969780;28;20196;-76
2021/08/08 03:47:40;;;;;;;2.13;1.02;;;;;;;;;;4971273;28;20239;-76
2021/08/08 03:50:05;;;;;;;1.10;0.90;;;;;;;;;;4970093;28;20271;-75
2021/08/08 03:52:30;;;;;;;1.80;0.85;;;;;;;;;;4956110;28;20214;-76
2021/08/08 03:54:56;;;;;;;1.20;0.70;;;;;;;;;;4970330;28;20181;-77
2021/08/08 03:57:21;;;;;;;1.10;1.00;;;;;;;;;;4972428;28;20330;-76
2021/08/08 03:59:46;;;;;;;1.25;0.75;;;;;;;;;;4970236;28;20193;-74
2021/08/08 04:02:11;;;;;;;0.70;0.70;;;;;;;;;;4969081;28;20184;-76
2021/08/08 04:04:36;;;;;;;1.10;0.70;;;;;;;;;;4969355;28;20316;-75
2021/08/08 04:07:01;;;;;;;2.03;0.80;;;;;;;;;;4969794;28;20448;-76
2021/08/08 04:09:27;;;;;;;1.30;0.80;;;;;;;;;;4971450;28;20185;-77
2021/08/08 04:11:52;;;;;;;1.00;0.73;;;;;;;;;;4970265;28;20255;-75
2021/08/08 04:14:17;;;;;;;0.80;0.80;;;;;;;;;;4970078;28;20184;-75
2021/08/08 04:16:42;;;;;;;0.93;0.70;;;;;;;;;;4969674;28;20239;-75
2021/08/08 04:19:07;;;;;;;1.47;0.70;;;;;;;;;;4969305;28;20521;-76
2021/08/08 04:21:32;;;;;;;0.90;0.83;;;;;;;;;;4971040;28;20219;-75
2021/08/08 04:23:58;;;;;;;0.70;0.70;;;;;;;;;;4969615;28;20184;-76
2021/08/08 04:26:23;;;;;;;2.17;0.90;;;;;;;;;;4970868;28;20304;-75
2021/08/08 04:28:48;;;;;;;1.58;1.05;;;;;;;;;;4970265;28;20801;-76
2021/08/08 04:31:13;;;;;;;2.73;0.97;;;;;;;;;;4968770;28;20299;-77
2021/08/08 04:33:38;;;;;;;0.73;0.73;;;;;;;;;;4968062;28;20268;-76
2021/08/08 04:36:04;;;;;;;2.03;1.00;;;;;;;;;;4971034;28;20213;-78
2021/08/08 04:38:29;;;;;;;0.80;0.70;;;;;;;;;;4968034;28;20224;-75
2021/08/08 04:40:54;;;;;;;1.10;0.75;;;;;;;;;;4968305;28;20698;-74
2021/08/08 04:43:20;;;;;;;1.63;0.73;;;;;;;;;;4969698;28;20185;-76
2021/08/08 04:45:45;;;;;;;2.05;0.90;;;;;;;;;;4968237;28;20673;-76
2021/08/08 04:48:10;;;;;;;0.90;0.75;;;;;;;;;;4968738;28;20637;-76
2021/08/08 04:50:35;;;;;;;0.70;0.70;;;;;;;;;;4969946;28;20622;-76
2021/08/08 04:53:01;;;;;;;1.00;0.82;;;;;;;;;;4970006;28;20271;-76
2021/08/08 04:55:26;;;;;;;0.80;0.80;;;;;;;;;;4970512;28;20276;-76
2021/08/08 04:57:51;;;;;;;2.10;0.70;;;;;;;;;;4969136;28;20180;-77
2021/08/08 05:00:17;;;;;;;1.08;0.80;;;;;;;;;;4968722;28;20191;-76
2021/08/08 05:02:43;;;;;;;0.80;0.80;;;;;;;;;;4967484;28;20467;-77
2021/08/08 05:05:08;;;;;;;1.33;0.70;;;;;;;;;;4967907;28;20224;-75
2021/08/08 05:07:40;;;;;;;0.70;0.70;;;;;;;;;;4968299;28;20295;-76
2021/08/08 05:10:09;;;;;;;2.97;0.70;;;;;;;;;;4968731;28;20208;-76
2021/08/08 05:12:34;;;;;;;1.80;1.00;;;;;;;;;;4967969;28;20177;-77
2021/08/08 05:14:59;;;;;;;1.23;0.90;;;;;;;;;;4968261;28;20177;-79
2021/08/08 05:17:24;;;;;;;3.20;1.10;;;;;;;;;;4967060;28;20750;-76
2021/08/08 05:19:50;;;;;;;1.30;0.90;;;;;;;;;;4968221;28;20239;-75
2021/08/08 05:22:15;;;;;;;1.83;0.80;;;;;;;;;;4968599;28;20177;-75
2021/08/08 05:24:40;;;;;;;1.02;0.70;;;;;;;;;;4967260;28;20553;-77
2021/08/08 05:27:05;;;;;;;1.52;0.82;;;;;;;;;;4968110;28;20204;-76
2021/08/08 05:29:30;;;;;;;2.10;1.00;;;;;;;;;;4969218;28;20268;-76
2021/08/08 05:31:55;;;;;;;1.92;1.10;;;;;;;;;;4968724;28;20212;-76
2021/08/08 05:34:21;;;;;;;2.20;1.20;;;;;;;;;;4969275;28;20173;-77
2021/08/08 05:36:46;;;;;;;3.35;0.90;;;;;;;;;;4969583;28;20236;-77
2021/08/08 05:39:11;;;;;;;2.05;1.00;;;;;;;;;;4969434;28;20188;-75
2021/08/08 05:41:36;;;;;;;0.70;0.70;;;;;;;;;;4970157;28;20184;-75
2021/08/08 05:44:01;;;;;;;0.70;0.70;;;;;;;;;;4969141;28;20649;-76
2021/08/08 05:46:27;;;;;;;1.08;0.90;;;;;;;;;;4968584;28;20215;-76
2021/08/08 05:48:55;;;;;;;0.90;0.90;;;;;;;;;;4966492;28;20192;-77
2021/08/08 05:51:20;;;;;;;1.75;1.17;;;;;;;;;;4968482;28;20201;-77
2021/08/08 05:53:45;;;;;;;1.30;0.98;;;;;;;;;;4972732;28;20179;-76
2021/08/08 05:56:10;;;;;;;1.10;1.00;;;;;;;;;;4967782;28;20200;-76
2021/08/08 05:58:35;;;;;;;1.88;1.02;;;;;;;;;;4967915;28;20181;-75
2021/08/08 06:01:00;;;;;;;1.37;0.87;;;;;;;;;;4968049;28;20427;-76
2021/08/08 06:03:26;;;;;;;2.75;1.10;;;;;;;;;;4967965;28;20797;-76
2021/08/08 06:05:51;;;;;;;0.90;0.90;;;;;;;;;;4967639;28;20287;-76
2021/08/08 06:08:16;;;;;;;1.05;0.90;;;;;;;;;;4968956;28;20180;-76
2021/08/08 06:10:41;;;;;;;1.33;0.90;;;;;;;;;;4951030;28;20224;-76
2021/08/08 06:13:06;;;;;;;0.90;0.90;;;;;;;;;;4969602;28;20219;-76
2021/08/08 06:15:32;;;;;;;1.70;0.82;;;;;;;;;;4968119;28;20696;-77
2021/08/08 06:17:57;;;;;;;0.63;0.63;;;;;;;;;;4967406;28;20240;-74
2021/08/08 06:20:22;;;;;;;1.58;1.15;;;;;;;;;;4967542;28;20645;-76
2021/08/08 06:22:48;;;;;;;3.00;1.40;;;;;;;;;;4969385;28;20728;-76
2021/08/08 06:25:13;;;;;;;1.80;0.90;;;;;;;;;;4968824;28;20718;-76
2021/08/08 06:27:38;;;;;;;2.70;1.20;;;;;;;;;;4968857;28;20208;-74
2021/08/08 06:30:04;;;;;;;1.65;1.02;;;;;;;;;;4967572;28;20189;-75
2021/08/08 06:32:29;;;;;;;1.10;0.90;;;;;;;;;;4964727;28;20239;-77
2021/08/08 06:34:54;;;;;;;2.20;1.10;;;;;;;;;;4967433;28;20271;-77
2021/08/08 06:37:20;;;;;;;2.35;1.27;;;;;;;;;;5005417;23;20242;-82
2021/08/08 06:39:46;;;;;;;1.85;1.25;;;;;;;;;;5007584;28;20187;-81
2021/08/08 06:42:11;;;;;;;1.98;1.13;;;;;;;;;;5004515;28;20191;-83
2021/08/08 06:44:36;;;;;;;2.10;1.27;;;;;;;;;;5008538;28;20556;-82
2021/08/08 06:47:01;;;;;;;1.77;1.10;;;;;;;;;;5017174;28;20195;-82
2021/08/08 06:49:27;;;;;;;1.13;0.98;;;;;;;;;;5007473;28;20175;-82
2021/08/08 06:51:52;;;;;;;2.80;1.05;;;;;;;;;;5023596;28;20359;-82
2021/08/08 06:54:17;;;;;;;1.42;0.98;;;;;;;;;;5009799;28;20642;-82
2021/08/08 06:56:42;;;;;;;2.65;1.15;;;;;;;;;;5021453;28;20577;-83
2021/08/08 06:59:07;;;;;;;2.60;1.20;;;;;;;;;;5032088;28;20206;-81
2021/08/08 07:01:32;;;;;;;1.35;1.05;;;;;;;;;;5021550;28;20571;-82
2021/08/08 07:04:02;;;;;;;2.50;1.20;;;;;;;;;;5025739;28;20205;-82
2021/08/08 07:06:27;;;;;;;2.75;1.20;;;;;;;;;;5014741;28;20230;-82
2021/08/08 07:08:52;;;;;;;2.67;1.30;;;;;;;;;;5028868;28;20218;-83
2021/08/08 07:11:18;;;;;;;2.70;1.10;;;;;;;;;;5026785;28;20234;-83
2021/08/08 07:13:43;;;;;;;1.38;1.15;;;;;;;;;;5030342;28;20724;-82
2021/08/08 07:16:08;;;;;;;2.55;1.13;;;;;;;;;;5025059;28;20654;-82
2021/08/08 07:18:34;;;;;;;3.30;1.30;;;;;;;;;;5010288;28;20207;-82
2021/08/08 07:20:59;;;;;;;1.88;1.13;;;;;;;;;;5027324;28;20196;-83
2021/08/08 07:23:24;;;;;;;2.22;1.10;;;;;;;;;;5024395;28;20221;-83
2021/08/08 07:25:53;;;;;;;2.05;1.20;;;;;;;;;;5030438;28;20218;-84
2021/08/08 07:28:18;;;;;;;2.67;1.30;;;;;;;;;;5025084;28;20202;-81
2021/08/08 07:30:43;;;;;;;2.17;1.20;;;;;;;;;;5027210;28;20211;-83
2021/08/08 07:33:08;;;;;;;4.87;1.67;;;;;;;;;;5031244;28;20933;-83
2021/08/08 07:35:36;;;;;;;2.95;1.15;;;;;;;;;;5024066;28;20448;-82
2021/08/08 07:38:01;;;;;;;1.17;1.08;;;;;;;;;;5028990;28;20850;-83
2021/08/08 07:40:26;;;;;;;4.22;1.20;;;;;;;;;;5026620;28;20186;-82
2021/08/08 07:42:52;;;;;;;4.27;1.30;;;;;;;;;;5024598;28;20191;-83
2021/08/08 07:45:17;;;;;;;3.25;1.20;;;;;;;;;;5028279;28;20422;-81
2021/08/08 07:47:42;;;;;;;1.83;1.10;;;;;;;;;;5025355;28;20218;-80
2021/08/08 07:50:08;;;;;;;1.83;1.20;;;;;;;;;;5026491;28;20263;-78
2021/08/08 07:52:34;;;;;;;2.83;1.20;;;;;;;;;;5013669;28;20545;-82
2021/08/08 07:54:59;;;;;;;0.75;0.73;;;;;;;;;;5021040;28;20639;-80
2021/08/08 07:57:24;;;;;;;3.50;1.13;;;;;;;;;;5029859;28;20290;-78
2021/08/08 07:59:50;;;;;;;1.13;0.87;;;;;;;;;;5025100;28;20214;-79
2021/08/08 08:02:15;;;;;;;5.28;1.50;;;;;;;;;;5020602;28;20513;-80
2021/08/08 08:04:43;;;;;;;1.60;1.07;;;;;;;;;;5025732;28;20273;-81
2021/08/08 08:07:08;;;;;;;3.08;1.10;;;;;;;;;;5023650;28;20449;-79
2021/08/08 08:09:33;;;;;;;2.03;1.25;;;;;;;;;;5023780;28;20274;-79
2021/08/08 08:11:59;;;;;;;1.97;1.10;;;;;;;;;;5014678;28;20297;-79
2021/08/08 08:14:24;;;;;;;2.50;1.38;;;;;;;;;;5019558;28;20962;-81
2021/08/08 08:16:49;;;;;;;2.47;1.48;;;;;;;;;;5015493;28;20281;-77
2021/08/08 08:19:15;;;;;;;1.42;1.20;;;;;;;;;;5021618;28;20187;-77
2021/08/08 08:21:40;;;;;;;2.50;1.20;;;;;;;;;;5012641;28;20249;-82
2021/08/08 08:24:05;;;;;;;1.90;1.02;;;;;;;;;;5009791;28;20579;-79
2021/08/08 08:26:30;;;;;;;6.00;1.20;;;;;;;;;;5019953;28;20654;-76
2021/08/08 08:28:55;;;;;;;2.38;1.30;;;;;;;;;;5025450;28;20229;-79
2021/08/08 08:31:20;;;;;;;1.38;0.95;;;;;;;;;;5023341;28;20206;-78
2021/08/08 08:33:46;;;;;;;1.70;1.20;;;;;;;;;;5021923;28;20479;-79
2021/08/08 08:36:11;;;;;;;3.97;1.63;;;;;;;;;;5026715;28;20175;-78
2021/08/08 08:38:36;;;;;;;2.60;1.10;;;;;;;;;;5010622;28;20252;-81
2021/08/08 08:41:03;;;;;;;2.55;1.20;;;;;;;;;;5023420;28;20226;-79
2021/08/08 08:43:29;;;;;;;7.70;1.30;;;;;;;;;;5009476;28;20646;-78
2021/08/08 08:45:54;;;;;;;4.47;1.30;;;;;;;;;;5008467;28;20199;-80
2021/08/08 08:48:20;;;;;;;2.85;1.27;;;;;;;;;;5026765;28;20210;-79
2021/08/08 08:50:50;;;;;;;2.72;1.13;;;;;;;;;;5024740;28;20258;-80
2021/08/08 08:53:16;;;;;;;2.65;1.20;;;;;;;;;;5020797;28;20718;-77
2021/08/08 08:55:41;;;;;;;2.65;1.15;;;;;;;;;;5012058;28;20175;-77
2021/08/08 08:58:07;;;;;;;2.58;1.27;;;;;;;;;;5021498;28;20194;-79
2021/08/08 09:00:32;;;;;;;1.42;1.00;;;;;;;;;;5010393;28;20629;-79
2021/08/08 09:02:58;;;;;;;3.30;1.10;;;;;;;;;;5026094;28;20771;-80
2021/08/08 09:05:23;;;;;;;5.00;1.30;;;;;;;;;;5023496;28;20191;-78
2021/08/08 09:07:48;;;;;;;2.05;1.10;;;;;;;;;;5016037;28;20442;-78
2021/08/08 09:10:14;;;;;;;3.00;1.20;;;;;;;;;;5023883;28;20213;-79
2021/08/08 09:12:39;;;;;;;2.28;1.20;;;;;;;;;;5024426;28;20190;-81
2021/08/08 09:15:05;;;;;;;2.78;1.48;;;;;;;;;;5010101;28;20205;-80
2021/08/08 09:17:37;;;;;;;4.38;1.38;;;;;;;;;;5015000;28;20203;-83
2021/08/08 09:20:07;;;;;;;2.60;1.33;;;;;;;;;;5017939;28;20188;-81
2021/08/08 09:22:32;;;;;;;3.47;1.30;;;;;;;;;;5025497;28;20175;-82
2021/08/08 09:24:58;;;;;;;2.38;1.25;;;;;;;;;;5016735;28;20675;-79
2021/08/08 09:27:30;;;;;;;2.20;1.13;;;;;;;;;;5026555;28;20632;-82
2021/08/08 09:29:55;;;;;;;2.67;1.15;;;;;;;;;;5022219;28;20829;-81
2021/08/08 09:32:20;;;;;;;4.13;1.40;;;;;;;;;;5022371;28;20186;-85
2021/08/08 09:34:46;;;;;;;4.13;1.00;;;;;;;;;;5005790;28;21073;-82
2021/08/08 09:37:22;;;;;;;3.38;1.30;;;;;;;;;;5021666;28;20477;-81
2021/08/08 09:39:51;;;;;;;4.40;1.27;;;;;;;;;;5024115;28;20183;-84
2021/08/08 09:42:21;;;;;;;2.63;1.25;;;;;;;;;;5020816;28;20167;-82
2021/08/08 09:44:49;;;;;;;2.63;1.23;;;;;;;;;;5017722;28;20175;-85
2021/08/08 09:47:15;;;;;;;2.35;1.20;;;;;;;;;;5021597;28;20202;-77
2021/08/08 09:49:40;;;;;;;3.50;1.30;;;;;;;;;;5027585;28;20281;-78
2021/08/08 09:52:05;;;;;;;4.03;1.50;;;;;;;;;;5022589;28;20211;-80
2021/08/08 09:54:34;;;;;;;3.05;1.40;;;;;;;;;;5010157;28;20524;-81
2021/08/08 09:57:00;;;;;;;6.10;1.75;;;;;;;;;;5023899;28;20209;-81
2021/08/08 09:59:25;;;;;;;3.70;1.48;;;;;;;;;;5022576;28;20182;-81
2021/08/08 10:01:50;;;;;;;2.65;1.38;;;;;;;;;;5025080;28;20258;-78
2021/08/08 10:04:15;;;;;;;2.63;1.33;;;;;;;;;;5021982;28;20222;-79
2021/08/08 10:06:41;;;;;;;3.80;1.57;;;;;;;;;;5009952;28;20457;-81
2021/08/08 10:09:06;;;;;;;2.75;1.40;;;;;;;;;;5025422;28;20469;-75
2021/08/08 10:11:32;;;;;;;5.13;1.38;;;;;;;;;;5016763;28;20295;-75
2021/08/08 10:14:02;;;;;;;5.22;1.30;;;;;;;;;;5016272;28;20184;-75
2021/08/08 10:16:31;;;;;;;2.35;1.40;;;;;;;;;;5013804;28;20214;-75
2021/08/08 10:18:58;;;;;;;2.58;1.10;;;;;;;;;;5013468;28;20175;-74
2021/08/08 10:21:24;;;;;;;1.95;1.30;;;;;;;;;;5006436;28;20187;-74
2021/08/08 10:23:50;;;;;;;2.28;1.40;;;;;;;;;;5015686;28;20190;-75
2021/08/08 10:26:15;;;;;;;2.67;1.30;;;;;;;;;;5014599;28;20188;-74
2021/08/08 10:28:41;;;;;;;2.08;1.50;;;;;;;;;;5019379;28;20187;-74
2021/08/08 10:31:07;;;;;;;4.00;1.40;;;;;;;;;;5016974;28;20226;-75
2021/08/08 10:33:42;;;;;;;4.13;1.48;;;;;;;;;;5022922;28;20186;-77
2021/08/08 10:36:15;;;;;;;5.20;1.55;;;;;;;;;;5022874;28;20190;-77
2021/08/08 10:38:40;;;;;;;3.03;1.30;;;;;;;;;;5026261;28;20681;-77
2021/08/08 10:41:09;;;;;;;1.40;1.10;;;;;;;;;;5025481;28;20188;-79
2021/08/08 10:43:34;;;;;;;5.30;1.35;;;;;;;;;;5028409;28;21059;-79
2021/08/08 10:46:04;;;;;;;3.35;1.50;;;;;;;;;;5027646;28;20190;-77
2021/08/08 10:48:33;;;;;;;2.75;1.30;;;;;;;;;;5019850;28;20176;-76
2021/08/08 10:50:58;;;;;;;2.90;1.20;;;;;;;;;;5020829;28;20187;-75
2021/08/08 10:53:25;;;;;;;2.65;1.27;;;;;;;;;;5024086;28;20190;-77
2021/08/08 10:56:01;;;;;;;1.98;1.10;;;;;;;;;;5038079;28;20183;-77
2021/08/08 10:58:30;;;;;;;5.25;1.35;;;;;;;;;;5027088;28;20251;-75
2021/08/08 11:00:56;;;;;;;2.53;1.35;;;;;;;;;;5023003;28;20639;-75
2021/08/08 11:03:21;;;;;;;3.80;1.20;;;;;;;;;;5020084;28;20193;-75
2021/08/08 11:05:46;;;;;;;2.58;1.17;;;;;;;;;;5027273;28;20193;-74
2021/08/08 11:08:12;;;;;;;2.97;1.60;;;;;;;;;;5012482;28;20210;-77
2021/08/08 11:10:42;;;;;;;3.92;1.67;;;;;;;;;;5024545;28;20294;-76
2021/08/08 11:13:19;;;;;;;3.95;1.45;;;;;;;;;;5028914;28;20617;-75
2021/08/08 11:15:45;;;;;;;2.15;1.15;;;;;;;;;;5031414;28;20193;-76
2021/08/08 11:18:10;;;;;;;3.17;1.20;;;;;;;;;;5012396;28;20210;-78
2021/08/08 11:20:36;;;;;;;1.92;1.17;;;;;;;;;;5027160;28;20186;-76
2021/08/08 11:23:03;;;;;;;2.25;1.23;;;;;;;;;;5008767;28;20237;-76
2021/08/08 11:25:38;;;;;;;2.78;1.70;;;;;;;;;;5025044;28;20206;-75
2021/08/08 11:28:07;;;;;;;1.92;1.33;;;;;;;;;;5023610;28;20325;-76
2021/08/08 11:30:43;;;;;;;4.53;1.90;;;;;;;;;;5016953;28;20615;-76
2021/08/08 11:33:09;;;;;;;3.92;1.40;;;;;;;;;;5025616;28;20187;-76
2021/08/08 11:35:34;;;;;;;2.33;1.20;;;;;;;;;;5019118;28;20194;-74
2021/08/08 11:37:59;;;;;;;1.58;1.27;;;;;;;;;;5006463;28;20203;-77
2021/08/08 11:40:26;;;;;;;2.33;1.27;;;;;;;;;;5028132;28;20179;-77
2021/08/08 11:43:09;;;;;;;2.78;1.50;;;;;;;;;;5022398;28;20374;-76
2021/08/08 11:45:35;;;;;;;4.13;1.60;;;;;;;;;;5019720;28;20229;-79
2021/08/08 11:48:01;;;;;;;2.05;1.10;;;;;;;;;;5040058;28;20499;-75
2021/08/08 11:50:28;;;;;;;2.40;1.15;;;;;;;;;;5016377;28;20720;-76
2021/08/08 11:52:57;;;;;;;2.17;1.25;;;;;;;;;;5017465;28;20175;-76
2021/08/08 11:55:22;;;;;;;3.08;1.27;;;;;;;;;;5028301;28;20202;-77
2021/08/08 11:57:48;;;;;;;2.40;1.23;;;;;;;;;;5014396;28;20298;-78
2021/08/08 12:00:13;;;;;;;2.35;1.38;;;;;;;;;;5016398;28;20191;-77
2021/08/08 12:02:38;;;;;;;2.67;1.15;;;;;;;;;;5017000;28;20183;-75
2021/08/08 12:05:04;;;;;;;3.28;1.35;;;;;;;;;;5011914;28;20259;-77
2021/08/08 12:07:29;;;;;;;2.15;0.93;;;;;;;;;;5022842;28;20194;-79
2021/08/08 12:09:55;;;;;;;2.63;1.35;;;;;;;;;;5020320;28;20171;-78
2021/08/08 12:12:32;;;;;;;4.75;1.40;;;;;;;;;;5013519;28;20545;-76
2021/08/08 12:14:57;;;;;;;4.75;1.52;;;;;;;;;;5025460;28;20227;-79
2021/08/08 12:17:22;;;;;;;4.43;1.48;;;;;;;;;;5018852;28;20286;-76
2021/08/08 12:19:49;;;;;;;2.63;1.30;;;;;;;;;;5027482;28;20193;-78
2021/08/08 12:22:19;;;;;;;2.33;1.45;;;;;;;;;;5022843;28;20178;-76
2021/08/08 12:24:45;;;;;;;3.58;1.45;;;;;;;;;;5004968;28;20183;-78
2021/08/08 12:27:14;;;;;;;2.22;1.38;;;;;;;;;;5015160;28;20281;-78
2021/08/08 12:29:40;;;;;;;2.45;1.52;;;;;;;;;;5019851;28;20193;-77
2021/08/08 12:32:16;;;;;;;3.20;1.40;;;;;;;;;;5013158;28;20862;-76
2021/08/08 12:34:42;;;;;;;4.22;1.40;;;;;;;;;;5003681;28;20546;-78
2021/08/08 12:37:08;;;;;;;2.60;1.33;;;;;;;;;;5025109;28;20277;-76
2021/08/08 12:39:34;;;;;;;7.95;1.50;;;;;;;;;;5030851;28;20185;-76
2021/08/08 12:42:02;;;;;;;3.72;1.38;;;;;;;;;;5020696;28;20172;-77
2021/08/08 12:44:31;;;;;;;2.22;1.17;;;;;;;;;;5022124;28;20250;-77
2021/08/08 12:47:01;;;;;;;1.42;1.15;;;;;;;;;;5013795;28;20211;-77
2021/08/08 12:49:32;;;;;;;2.75;1.40;;;;;;;;;;5021507;28;20213;-75
2021/08/08 12:51:57;;;;;;;2.67;1.20;;;;;;;;;;5014756;28;20203;-75
2021/08/08 12:54:22;;;;;;;2.55;1.23;;;;;;;;;;5020688;28;20186;-76
2021/08/08 12:56:47;;;;;;;1.43;1.10;;;;;;;;;;5023770;28;20229;-76
2021/08/08 12:59:12;;;;;;;2.50;1.30;;;;;;;;;;5015454;28;20491;-77
2021/08/08 13:01:40;;;;;;;2.50;1.23;;;;;;;;;;5014891;28;20426;-75
2021/08/08 13:04:05;;;;;;;3.95;1.23;;;;;;;;;;5022836;28;20447;-77
2021/08/08 13:06:31;;;;;;;2.08;1.27;;;;;;;;;;5019991;28;20211;-76
2021/08/08 13:08:56;;;;;;;4.70;1.52;;;;;;;;;;5020371;28;20213;-77
2021/08/08 13:11:21;;;;;;;2.45;1.55;;;;;;;;;;5022127;28;20293;-78
2021/08/08 13:13:46;;;;;;;1.70;1.20;;;;;;;;;;5015686;28;20214;-78
2021/08/08 13:16:11;;;;;;;2.70;1.67;;;;;;;;;;4995753;28;20232;-77
2021/08/08 13:18:37;;;;;;;2.60;1.50;;;;;;;;;;5017805;28;20205;-80
2021/08/08 13:21:03;;;;;;;3.20;1.45;;;;;;;;;;5025479;28;20182;-75
2021/08/08 13:23:28;;;;;;;2.08;1.10;;;;;;;;;;5023269;28;20549;-75
2021/08/08 13:25:53;;;;;;;3.70;1.27;;;;;;;;;;5018361;28;20190;-74
2021/08/08 13:28:19;;;;;;;2.67;1.23;;;;;;;;;;5018486;28;20284;-75
2021/08/08 13:30:44;;;;;;;2.65;1.38;;;;;;;;;;5016747;28;20458;-76
2021/08/08 13:33:09;;;;;;;1.50;1.00;;;;;;;;;;5022472;28;20179;-75
2021/08/08 13:35:34;;;;;;;2.92;1.20;;;;;;;;;;5018003;28;20426;-74
2021/08/08 13:37:59;;;;;;;1.92;1.17;;;;;;;;;;5021709;28;20218;-74
2021/08/08 13:40:25;;;;;;;3.43;1.10;;;;;;;;;;5009868;28;20178;-75
2021/08/08 13:42:50;;;;;;;2.72;1.27;;;;;;;;;;5024053;28;20441;-73
2021/08/08 13:45:15;;;;;;;3.63;1.08;;;;;;;;;;5007172;28;20198;-75
2021/08/08 13:47:40;;;;;;;2.35;1.30;;;;;;;;;;5022944;28;20207;-74
2021/08/08 13:50:06;;;;;;;2.97;1.20;;;;;;;;;;5021415;28;20186;-76
2021/08/08 13:52:31;;;;;;;1.55;1.20;;;;;;;;;;5026336;28;20728;-74
2021/08/08 13:54:57;;;;;;;2.28;1.20;;;;;;;;;;5015868;28;20615;-76
2021/08/08 13:57:22;;;;;;;1.70;1.33;;;;;;;;;;5022311;28;20281;-75
2021/08/08 13:59:47;;;;;;;5.38;1.50;;;;;;;;;;5024566;28;20171;-75
2021/08/08 14:02:12;;;;;;;2.78;1.33;;;;;;;;;;5022743;28;20175;-74
2021/08/08 14:04:37;;;;;;;4.23;1.33;;;;;;;;;;5023221;28;20686;-76
2021/08/08 14:07:03;;;;;;;3.00;1.20;;;;;;;;;;5022689;28;20449;-76
2021/08/08 14:09:28;;;;;;;4.05;1.30;;;;;;;;;;5024485;28;20178;-74
2021/08/08 14:11:57;;;;;;;3.70;1.20;;;;;;;;;;5023237;28;20210;-74
2021/08/08 14:14:23;;;;;;;2.38;1.20;;;;;;;;;;5028808;28;20174;-75
2021/08/08 14:16:48;;;;;;;2.15;1.10;;;;;;;;;;5015660;28;20697;-78
2021/08/08 14:19:16;;;;;;;3.15;1.15;;;;;;;;;;5024163;28;20651;-75
2021/08/08 14:21:41;;;;;;;3.28;1.10;;;;;;;;;;5027102;28;20212;-75
2021/08/08 14:24:07;;;;;;;3.90;1.60;;;;;;;;;;5027365;28;20186;-76
2021/08/08 14:26:32;;;;;;;3.05;1.30;;;;;;;;;;5030081;28;20210;-77
2021/08/08 14:28:57;;;;;;;4.15;1.15;;;;;;;;;;5026773;28;20232;-76
2021/08/08 14:31:23;;;;;;;4.50;1.40;;;;;;;;;;5025769;28;20225;-76
2021/08/08 14:33:48;;;;;;;5.35;1.30;;;;;;;;;;5026187;28;20191;-75
2021/08/08 14:36:13;;;;;;;2.22;1.30;;;;;;;;;;5026147;28;20579;-74
2021/08/08 14:38:38;;;;;;;2.03;1.23;;;;;;;;;;5019283;28;20217;-75